sensor_id;sensor_type;location;lat;lon;timestamp;P1;durP1;ratioP1;P2;durP2;ratioP2
12302;SDS011;6214;48.012;7.862;2023-04-03T00:00:49;16.70;;;4.10;;
12302;SDS011;6214;48.012;7.862;2023-04-03T00:03:17;16.42;;;4.07;;
12302;SDS011;6214;48.012;7.862;2023-04-03T00:05:45;16.50;;;3.77;;
12302;SDS011;6214;48.012;7.862;2023-04-03T00:08:12;16.60;;;3.60;;
12302;SDS011;6214;48.012;7.862;2023-04-03T00:10:40;16.20;;;3.30;;
12302;SDS011;6214;48.012;7.862;2023-04-03T00:13:07;16.80;;;3.90;;
12302;SDS011;6214;48.012;7.862;2023-04-03T00:15:34;16.40;;;3.70;;
12302;SDS011;6214;48.012;7.862;2023-04-03T00:18:02;16.83;;;4.00;;
12302;SDS011;6214;48.012;7.862;2023-04-03T00:20:30;17.00;;;3.90;;
12302;SDS011;6214;48.012;7.862;2023-04-03T00:22:57;16.83;;;4.40;;
12302;SDS011;6214;48.012;7.862;2023-04-03T00:25:24;16.65;;;4.13;;
12302;SDS011;6214;48.012;7.862;2023-04-03T00:27:51;16.52;;;3.80;;
12302;SDS011;6214;48.012;7.862;2023-04-03T00:30:18;16.63;;;3.78;;
12302;SDS011;6214;48.012;7.862;2023-04-03T00:32:47;16.70;;;4.00;;
12302;SDS011;6214;48.012;7.862;2023-04-03T00:35:15;16.60;;;4.10;;
12302;SDS011;6214;48.012;7.862;2023-04-03T00:37:43;16.85;;;3.58;;
12302;SDS011;6214;48.012;7.862;2023-04-03T00:40:12;16.23;;;3.50;;
12302;SDS011;6214;48.012;7.862;2023-04-03T00:42:42;16.10;;;3.45;;
12302;SDS011;6214;48.012;7.862;2023-04-03T00:47:39;16.52;;;3.70;;
12302;SDS011;6214;48.012;7.862;2023-04-03T00:50:08;16.65;;;3.55;;
12302;SDS011;6214;48.012;7.862;2023-04-03T00:52:35;16.40;;;3.30;;
12302;SDS011;6214;48.012;7.862;2023-04-03T00:55:05;16.30;;;3.30;;
12302;SDS011;6214;48.012;7.862;2023-04-03T00:57:34;16.70;;;3.83;;
12302;SDS011;6214;48.012;7.862;2023-04-03T01:00:04;16.80;;;3.40;;
12302;SDS011;6214;48.012;7.862;2023-04-03T01:02:35;17.08;;;3.67;;
12302;SDS011;6214;48.012;7.862;2023-04-03T01:05:03;16.20;;;3.60;;
12302;SDS011;6214;48.012;7.862;2023-04-03T01:07:31;17.00;;;3.50;;
12302;SDS011;6214;48.012;7.862;2023-04-03T01:10:01;17.95;;;3.55;;
12302;SDS011;6214;48.012;7.862;2023-04-03T01:12:31;17.40;;;3.57;;
12302;SDS011;6214;48.012;7.862;2023-04-03T01:15:04;17.83;;;3.50;;
12302;SDS011;6214;48.012;7.862;2023-04-03T01:25:38;16.50;;;3.40;;
12302;SDS011;6214;48.012;7.862;2023-04-03T01:28:06;18.58;;;3.40;;
12302;SDS011;6214;48.012;7.862;2023-04-03T01:30:36;17.00;;;3.40;;
12302;SDS011;6214;48.012;7.862;2023-04-03T01:33:09;16.80;;;3.20;;
12302;SDS011;6214;48.012;7.862;2023-04-03T01:35:37;17.20;;;3.67;;
12302;SDS011;6214;48.012;7.862;2023-04-03T01:38:04;16.05;;;2.80;;
12302;SDS011;6214;48.012;7.862;2023-04-03T01:40:31;16.50;;;2.67;;
12302;SDS011;6214;48.012;7.862;2023-04-03T01:42:58;15.90;;;2.40;;
12302;SDS011;6214;48.012;7.862;2023-04-03T01:45:25;15.90;;;2.60;;
12302;SDS011;6214;48.012;7.862;2023-04-03T01:47:52;15.30;;;2.30;;
12302;SDS011;6214;48.012;7.862;2023-04-03T01:50:19;15.55;;;2.40;;
12302;SDS011;6214;48.012;7.862;2023-04-03T01:52:46;15.82;;;2.40;;
12302;SDS011;6214;48.012;7.862;2023-04-03T01:55:13;15.90;;;2.20;;
12302;SDS011;6214;48.012;7.862;2023-04-03T01:57:41;15.80;;;2.60;;
12302;SDS011;6214;48.012;7.862;2023-04-03T02:00:08;16.40;;;2.60;;
12302;SDS011;6214;48.012;7.862;2023-04-03T02:02:36;15.98;;;2.70;;
12302;SDS011;6214;48.012;7.862;2023-04-03T02:05:03;15.77;;;2.50;;
12302;SDS011;6214;48.012;7.862;2023-04-03T02:07:30;16.15;;;2.70;;
12302;SDS011;6214;48.012;7.862;2023-04-03T02:09:57;16.13;;;2.92;;
12302;SDS011;6214;48.012;7.862;2023-04-03T02:12:24;16.00;;;2.80;;
12302;SDS011;6214;48.012;7.862;2023-04-03T02:14:51;16.13;;;3.00;;
12302;SDS011;6214;48.012;7.862;2023-04-03T02:17:18;16.25;;;2.60;;
12302;SDS011;6214;48.012;7.862;2023-04-03T02:19:44;16.40;;;2.80;;
12302;SDS011;6214;48.012;7.862;2023-04-03T02:22:11;16.20;;;2.60;;
12302;SDS011;6214;48.012;7.862;2023-04-03T02:24:38;16.23;;;2.80;;
12302;SDS011;6214;48.012;7.862;2023-04-03T02:27:06;16.23;;;2.65;;
12302;SDS011;6214;48.012;7.862;2023-04-03T02:29:33;16.35;;;3.10;;
12302;SDS011;6214;48.012;7.862;2023-04-03T02:32:00;16.63;;;2.90;;
12302;SDS011;6214;48.012;7.862;2023-04-03T02:34:27;15.90;;;2.60;;
12302;SDS011;6214;48.012;7.862;2023-04-03T02:36:54;17.10;;;2.70;;
12302;SDS011;6214;48.012;7.862;2023-04-03T02:39:22;15.90;;;2.80;;
12302;SDS011;6214;48.012;7.862;2023-04-03T02:41:49;16.70;;;2.80;;
12302;SDS011;6214;48.012;7.862;2023-04-03T02:44:16;16.00;;;2.50;;
12302;SDS011;6214;48.012;7.862;2023-04-03T02:46:44;16.17;;;2.60;;
12302;SDS011;6214;48.012;7.862;2023-04-03T02:49:11;16.50;;;2.80;;
12302;SDS011;6214;48.012;7.862;2023-04-03T02:51:38;15.60;;;2.22;;
12302;SDS011;6214;48.012;7.862;2023-04-03T02:54:05;15.90;;;2.70;;
12302;SDS011;6214;48.012;7.862;2023-04-03T02:56:32;16.02;;;2.30;;
12302;SDS011;6214;48.012;7.862;2023-04-03T02:58:59;15.43;;;2.20;;
12302;SDS011;6214;48.012;7.862;2023-04-03T03:01:26;15.98;;;2.60;;
12302;SDS011;6214;48.012;7.862;2023-04-03T03:03:58;15.90;;;2.60;;
12302;SDS011;6214;48.012;7.862;2023-04-03T03:06:26;15.43;;;2.17;;
12302;SDS011;6214;48.012;7.862;2023-04-03T03:08:53;16.30;;;2.25;;
12302;SDS011;6214;48.012;7.862;2023-04-03T03:11:20;15.70;;;2.30;;
12302;SDS011;6214;48.012;7.862;2023-04-03T03:13:47;16.10;;;2.50;;
12302;SDS011;6214;48.012;7.862;2023-04-03T03:16:14;15.40;;;1.90;;
12302;SDS011;6214;48.012;7.862;2023-04-03T03:18:41;15.88;;;2.00;;
12302;SDS011;6214;48.012;7.862;2023-04-03T03:21:08;18.60;;;2.10;;
12302;SDS011;6214;48.012;7.862;2023-04-03T03:23:36;15.73;;;2.33;;
12302;SDS011;6214;48.012;7.862;2023-04-03T03:26:04;16.40;;;2.30;;
12302;SDS011;6214;48.012;7.862;2023-04-03T03:28:32;15.40;;;2.08;;
12302;SDS011;6214;48.012;7.862;2023-04-03T03:31:01;15.50;;;2.20;;
12302;SDS011;6214;48.012;7.862;2023-04-03T03:33:28;16.10;;;2.38;;
12302;SDS011;6214;48.012;7.862;2023-04-03T03:35:55;15.52;;;2.30;;
12302;SDS011;6214;48.012;7.862;2023-04-03T03:38:22;15.38;;;2.00;;
12302;SDS011;6214;48.012;7.862;2023-04-03T03:40:50;16.30;;;2.75;;
12302;SDS011;6214;48.012;7.862;2023-04-03T03:43:17;15.77;;;2.50;;
12302;SDS011;6214;48.012;7.862;2023-04-03T03:45:44;15.80;;;2.38;;
12302;SDS011;6214;48.012;7.862;2023-04-03T03:48:15;15.43;;;2.20;;
12302;SDS011;6214;48.012;7.862;2023-04-03T03:50:42;15.70;;;2.40;;
12302;SDS011;6214;48.012;7.862;2023-04-03T03:53:09;15.90;;;2.30;;
12302;SDS011;6214;48.012;7.862;2023-04-03T03:55:36;15.60;;;2.20;;
12302;SDS011;6214;48.012;7.862;2023-04-03T03:58:04;15.73;;;2.30;;
12302;SDS011;6214;48.012;7.862;2023-04-03T04:00:31;15.30;;;2.20;;
12302;SDS011;6214;48.012;7.862;2023-04-03T04:02:58;15.70;;;2.30;;
12302;SDS011;6214;48.012;7.862;2023-04-03T04:05:25;15.30;;;2.13;;
12302;SDS011;6214;48.012;7.862;2023-04-03T04:07:52;15.40;;;1.95;;
12302;SDS011;6214;48.012;7.862;2023-04-03T04:10:19;16.00;;;2.00;;
12302;SDS011;6214;48.012;7.862;2023-04-03T04:12:46;15.93;;;2.10;;
12302;SDS011;6214;48.012;7.862;2023-04-03T04:15:15;15.50;;;2.20;;
12302;SDS011;6214;48.012;7.862;2023-04-03T04:17:42;15.70;;;2.30;;
12302;SDS011;6214;48.012;7.862;2023-04-03T04:20:09;15.63;;;2.03;;
12302;SDS011;6214;48.012;7.862;2023-04-03T04:22:37;15.45;;;2.13;;
12302;SDS011;6214;48.012;7.862;2023-04-03T04:25:05;15.93;;;2.10;;
12302;SDS011;6214;48.012;7.862;2023-04-03T04:27:32;15.60;;;1.90;;
12302;SDS011;6214;48.012;7.862;2023-04-03T04:29:59;16.67;;;2.50;;
12302;SDS011;6214;48.012;7.862;2023-04-03T04:32:27;15.75;;;2.30;;
12302;SDS011;6214;48.012;7.862;2023-04-03T04:34:54;16.15;;;2.08;;
12302;SDS011;6214;48.012;7.862;2023-04-03T04:37:21;15.75;;;2.30;;
12302;SDS011;6214;48.012;7.862;2023-04-03T04:39:48;15.43;;;1.90;;
12302;SDS011;6214;48.012;7.862;2023-04-03T04:42:15;15.55;;;2.13;;
12302;SDS011;6214;48.012;7.862;2023-04-03T04:44:43;15.40;;;2.15;;
12302;SDS011;6214;48.012;7.862;2023-04-03T04:47:10;15.90;;;2.20;;
12302;SDS011;6214;48.012;7.862;2023-04-03T04:49:37;15.80;;;2.10;;
12302;SDS011;6214;48.012;7.862;2023-04-03T04:52:04;15.30;;;2.25;;
12302;SDS011;6214;48.012;7.862;2023-04-03T04:54:31;16.40;;;2.35;;
12302;SDS011;6214;48.012;7.862;2023-04-03T04:56:58;15.68;;;2.30;;
12302;SDS011;6214;48.012;7.862;2023-04-03T04:59:26;15.90;;;2.38;;
12302;SDS011;6214;48.012;7.862;2023-04-03T05:01:52;15.50;;;2.30;;
12302;SDS011;6214;48.012;7.862;2023-04-03T05:04:20;15.50;;;2.20;;
12302;SDS011;6214;48.012;7.862;2023-04-03T05:06:47;15.50;;;2.30;;
12302;SDS011;6214;48.012;7.862;2023-04-03T05:09:14;15.70;;;2.20;;
12302;SDS011;6214;48.012;7.862;2023-04-03T05:11:41;15.75;;;2.20;;
12302;SDS011;6214;48.012;7.862;2023-04-03T05:14:09;16.38;;;2.47;;
12302;SDS011;6214;48.012;7.862;2023-04-03T05:16:36;16.10;;;2.53;;
12302;SDS011;6214;48.012;7.862;2023-04-03T05:19:03;16.00;;;2.60;;
12302;SDS011;6214;48.012;7.862;2023-04-03T05:21:30;16.00;;;2.30;;
12302;SDS011;6214;48.012;7.862;2023-04-03T05:23:59;16.13;;;2.25;;
12302;SDS011;6214;48.012;7.862;2023-04-03T05:26:30;15.80;;;2.20;;
12302;SDS011;6214;48.012;7.862;2023-04-03T05:28:57;16.10;;;2.50;;
12302;SDS011;6214;48.012;7.862;2023-04-03T05:31:24;15.55;;;2.40;;
12302;SDS011;6214;48.012;7.862;2023-04-03T05:33:51;16.60;;;2.70;;
12302;SDS011;6214;48.012;7.862;2023-04-03T05:36:18;15.30;;;2.20;;
12302;SDS011;6214;48.012;7.862;2023-04-03T05:38:46;15.90;;;2.43;;
12302;SDS011;6214;48.012;7.862;2023-04-03T05:41:13;16.00;;;2.60;;
12302;SDS011;6214;48.012;7.862;2023-04-03T05:43:41;15.93;;;2.42;;
12302;SDS011;6214;48.012;7.862;2023-04-03T05:46:12;15.40;;;2.10;;
12302;SDS011;6214;48.012;7.862;2023-04-03T05:48:41;15.60;;;2.33;;
12302;SDS011;6214;48.012;7.862;2023-04-03T05:51:13;15.50;;;2.22;;
12302;SDS011;6214;48.012;7.862;2023-04-03T05:54:16;15.60;;;2.50;;
12302;SDS011;6214;48.012;7.862;2023-04-03T05:56:44;16.45;;;2.60;;
12302;SDS011;6214;48.012;7.862;2023-04-03T05:59:11;16.50;;;2.90;;
12302;SDS011;6214;48.012;7.862;2023-04-03T06:01:38;15.70;;;2.70;;
12302;SDS011;6214;48.012;7.862;2023-04-03T06:04:05;16.40;;;2.58;;
12302;SDS011;6214;48.012;7.862;2023-04-03T06:09:23;16.10;;;2.70;;
12302;SDS011;6214;48.012;7.862;2023-04-03T06:11:52;16.08;;;2.88;;
12302;SDS011;6214;48.012;7.862;2023-04-03T06:14:19;16.40;;;3.00;;
12302;SDS011;6214;48.012;7.862;2023-04-03T06:16:46;16.80;;;2.90;;
12302;SDS011;6214;48.012;7.862;2023-04-03T06:19:13;15.85;;;2.80;;
12302;SDS011;6214;48.012;7.862;2023-04-03T06:21:40;15.90;;;3.03;;
12302;SDS011;6214;48.012;7.862;2023-04-03T06:24:08;16.60;;;2.80;;
12302;SDS011;6214;48.012;7.862;2023-04-03T06:26:38;16.23;;;2.80;;
12302;SDS011;6214;48.012;7.862;2023-04-03T06:29:05;16.40;;;2.72;;
12302;SDS011;6214;48.012;7.862;2023-04-03T06:31:32;16.13;;;3.00;;
12302;SDS011;6214;48.012;7.862;2023-04-03T06:33:59;16.00;;;3.10;;
12302;SDS011;6214;48.012;7.862;2023-04-03T06:36:26;16.70;;;2.90;;
12302;SDS011;6214;48.012;7.862;2023-04-03T06:38:54;15.93;;;2.90;;
12302;SDS011;6214;48.012;7.862;2023-04-03T06:41:21;16.30;;;3.30;;
12302;SDS011;6214;48.012;7.862;2023-04-03T06:43:48;16.50;;;3.00;;
12302;SDS011;6214;48.012;7.862;2023-04-03T06:46:17;17.92;;;4.75;;
12302;SDS011;6214;48.012;7.862;2023-04-03T06:48:46;17.42;;;3.80;;
12302;SDS011;6214;48.012;7.862;2023-04-03T06:51:35;16.20;;;2.90;;
12302;SDS011;6214;48.012;7.862;2023-04-03T06:54:02;17.10;;;4.10;;
12302;SDS011;6214;48.012;7.862;2023-04-03T06:56:30;17.90;;;4.00;;
12302;SDS011;6214;48.012;7.862;2023-04-03T06:58:57;16.85;;;4.00;;
12302;SDS011;6214;48.012;7.862;2023-04-03T07:01:25;16.70;;;3.00;;
12302;SDS011;6214;48.012;7.862;2023-04-03T07:03:54;16.80;;;3.07;;
12302;SDS011;6214;48.012;7.862;2023-04-03T07:06:22;16.40;;;3.33;;
12302;SDS011;6214;48.012;7.862;2023-04-03T07:08:49;15.75;;;2.70;;
12302;SDS011;6214;48.012;7.862;2023-04-03T07:11:16;16.48;;;2.55;;
12302;SDS011;6214;48.012;7.862;2023-04-03T07:13:43;15.82;;;2.30;;
12302;SDS011;6214;48.012;7.862;2023-04-03T07:16:10;16.30;;;3.08;;
12302;SDS011;6214;48.012;7.862;2023-04-03T07:18:37;15.50;;;2.20;;
12302;SDS011;6214;48.012;7.862;2023-04-03T07:21:04;15.77;;;1.80;;
12302;SDS011;6214;48.012;7.862;2023-04-03T07:23:32;16.02;;;2.95;;
12302;SDS011;6214;48.012;7.862;2023-04-03T07:25:59;16.48;;;2.60;;
12302;SDS011;6214;48.012;7.862;2023-04-03T07:28:27;16.20;;;2.30;;
12302;SDS011;6214;48.012;7.862;2023-04-03T07:30:59;15.30;;;1.80;;
12302;SDS011;6214;48.012;7.862;2023-04-03T07:33:28;15.70;;;1.90;;
12302;SDS011;6214;48.012;7.862;2023-04-03T07:35:55;15.85;;;2.25;;
12302;SDS011;6214;48.012;7.862;2023-04-03T07:38:23;15.77;;;2.57;;
12302;SDS011;6214;48.012;7.862;2023-04-03T07:40:50;15.60;;;2.07;;
12302;SDS011;6214;48.012;7.862;2023-04-03T07:43:19;15.40;;;2.20;;
12302;SDS011;6214;48.012;7.862;2023-04-03T07:57:10;15.50;;;2.30;;
12302;SDS011;6214;48.012;7.862;2023-04-03T07:59:37;15.80;;;2.40;;
12302;SDS011;6214;48.012;7.862;2023-04-03T08:02:05;15.33;;;1.83;;
12302;SDS011;6214;48.012;7.862;2023-04-03T08:04:35;15.50;;;2.17;;
12302;SDS011;6214;48.012;7.862;2023-04-03T08:07:02;15.50;;;2.20;;
12302;SDS011;6214;48.012;7.862;2023-04-03T08:09:29;15.80;;;2.20;;
12302;SDS011;6214;48.012;7.862;2023-04-03T08:11:55;15.80;;;2.60;;
12302;SDS011;6214;48.012;7.862;2023-04-03T08:14:22;15.70;;;2.40;;
12302;SDS011;6214;48.012;7.862;2023-04-03T08:16:49;16.33;;;2.70;;
12302;SDS011;6214;48.012;7.862;2023-04-03T08:19:16;16.15;;;2.40;;
12302;SDS011;6214;48.012;7.862;2023-04-03T08:21:52;16.00;;;2.40;;
12302;SDS011;6214;48.012;7.862;2023-04-03T08:24:20;15.75;;;2.40;;
12302;SDS011;6214;48.012;7.862;2023-04-03T08:26:46;16.40;;;2.80;;
12302;SDS011;6214;48.012;7.862;2023-04-03T08:29:13;16.23;;;2.50;;
12302;SDS011;6214;48.012;7.862;2023-04-03T08:31:40;16.13;;;2.40;;
12302;SDS011;6214;48.012;7.862;2023-04-03T08:34:07;15.93;;;2.35;;
12302;SDS011;6214;48.012;7.862;2023-04-03T08:36:35;17.08;;;2.78;;
12302;SDS011;6214;48.012;7.862;2023-04-03T08:39:02;16.20;;;2.70;;
12302;SDS011;6214;48.012;7.862;2023-04-03T08:46:47;16.88;;;2.50;;
12302;SDS011;6214;48.012;7.862;2023-04-03T08:49:53;16.60;;;2.60;;
12302;SDS011;6214;48.012;7.862;2023-04-03T08:52:28;16.70;;;2.70;;
12302;SDS011;6214;48.012;7.862;2023-04-03T08:55:07;16.38;;;2.80;;
12302;SDS011;6214;48.012;7.862;2023-04-03T08:58:03;16.30;;;2.60;;
12302;SDS011;6214;48.012;7.862;2023-04-03T09:03:12;16.20;;;2.53;;
12302;SDS011;6214;48.012;7.862;2023-04-03T09:08:37;16.20;;;3.08;;
12302;SDS011;6214;48.012;7.862;2023-04-03T09:11:33;16.40;;;3.00;;
12302;SDS011;6214;48.012;7.862;2023-04-03T09:17:07;16.10;;;2.60;;
12302;SDS011;6214;48.012;7.862;2023-04-03T09:22:46;16.30;;;2.60;;
12302;SDS011;6214;48.012;7.862;2023-04-03T09:27:49;16.20;;;3.00;;
12302;SDS011;6214;48.012;7.862;2023-04-03T09:30:22;15.90;;;2.60;;
12302;SDS011;6214;48.012;7.862;2023-04-03T09:32:52;16.10;;;2.58;;
12302;SDS011;6214;48.012;7.862;2023-04-03T09:35:24;16.15;;;2.63;;
12302;SDS011;6214;48.012;7.862;2023-04-03T09:41:19;16.70;;;2.30;;
12302;SDS011;6214;48.012;7.862;2023-04-03T09:43:33;16.60;;;2.00;;
12302;SDS011;6214;48.012;7.862;2023-04-03T09:48:49;16.20;;;2.22;;
12302;SDS011;6214;48.012;7.862;2023-04-03T09:51:35;16.17;;;1.90;;
12302;SDS011;6214;48.012;7.862;2023-04-03T09:54:23;15.90;;;2.00;;
12302;SDS011;6214;48.012;7.862;2023-04-03T09:57:07;15.70;;;2.10;;
12302;SDS011;6214;48.012;7.862;2023-04-03T09:59:58;15.80;;;2.05;;
12302;SDS011;6214;48.012;7.862;2023-04-03T10:05:23;16.10;;;1.90;;
12302;SDS011;6214;48.012;7.862;2023-04-03T10:07:51;16.00;;;1.90;;
12302;SDS011;6214;48.012;7.862;2023-04-03T10:10:34;15.82;;;2.05;;
12302;SDS011;6214;48.012;7.862;2023-04-03T10:32:37;15.60;;;1.80;;
12302;SDS011;6214;48.012;7.862;2023-04-03T10:38:08;15.40;;;1.90;;
12302;SDS011;6214;48.012;7.862;2023-04-03T10:48:48;15.50;;;2.10;;
12302;SDS011;6214;48.012;7.862;2023-04-03T10:51:26;15.70;;;2.10;;
12302;SDS011;6214;48.012;7.862;2023-04-03T10:56:47;15.40;;;1.95;;
12302;SDS011;6214;48.012;7.862;2023-04-03T11:02:25;15.30;;;2.03;;
12302;SDS011;6214;48.012;7.862;2023-04-03T11:05:04;15.40;;;1.88;;
12302;SDS011;6214;48.012;7.862;2023-04-03T11:07:42;15.60;;;2.00;;
12302;SDS011;6214;48.012;7.862;2023-04-03T11:10:36;15.40;;;1.90;;
12302;SDS011;6214;48.012;7.862;2023-04-03T11:13:13;15.68;;;1.80;;
12302;SDS011;6214;48.012;7.862;2023-04-03T11:15:43;15.30;;;1.80;;
12302;SDS011;6214;48.012;7.862;2023-04-03T11:18:17;15.95;;;1.80;;
12302;SDS011;6214;48.012;7.862;2023-04-03T11:20:57;15.63;;;2.00;;
12302;SDS011;6214;48.012;7.862;2023-04-03T11:23:29;15.70;;;2.20;;
12302;SDS011;6214;48.012;7.862;2023-04-03T11:26:15;15.63;;;1.90;;
12302;SDS011;6214;48.012;7.862;2023-04-03T11:28:52;15.80;;;1.83;;
12302;SDS011;6214;48.012;7.862;2023-04-03T11:33:58;17.00;;;2.40;;
12302;SDS011;6214;48.012;7.862;2023-04-03T11:36:52;15.10;;;1.67;;
12302;SDS011;6214;48.012;7.862;2023-04-03T11:39:28;15.40;;;1.80;;
12302;SDS011;6214;48.012;7.862;2023-04-03T11:45:15;15.90;;;1.90;;
12302;SDS011;6214;48.012;7.862;2023-04-03T11:47:50;15.70;;;1.90;;
12302;SDS011;6214;48.012;7.862;2023-04-03T11:53:46;15.98;;;2.10;;
12302;SDS011;6214;48.012;7.862;2023-04-03T11:55:54;15.60;;;2.10;;
12302;SDS011;6214;48.012;7.862;2023-04-03T11:58:25;16.33;;;1.90;;
12302;SDS011;6214;48.012;7.862;2023-04-03T12:00:55;16.30;;;1.80;;
12302;SDS011;6214;48.012;7.862;2023-04-03T12:13:40;15.50;;;1.80;;
12302;SDS011;6214;48.012;7.862;2023-04-03T12:16:24;15.70;;;2.00;;
12302;SDS011;6214;48.012;7.862;2023-04-03T12:26:44;16.10;;;2.10;;
12302;SDS011;6214;48.012;7.862;2023-04-03T12:32:09;15.60;;;1.67;;
12302;SDS011;6214;48.012;7.862;2023-04-03T12:34:56;15.50;;;1.80;;
12302;SDS011;6214;48.012;7.862;2023-04-03T12:43:23;15.90;;;2.00;;
12302;SDS011;6214;48.012;7.862;2023-04-03T12:46:23;15.90;;;1.80;;
12302;SDS011;6214;48.012;7.862;2023-04-03T12:48:57;15.60;;;2.10;;
12302;SDS011;6214;48.012;7.862;2023-04-03T12:51:37;15.80;;;1.80;;
12302;SDS011;6214;48.012;7.862;2023-04-03T12:54:19;15.77;;;1.70;;
12302;SDS011;6214;48.012;7.862;2023-04-03T12:56:48;15.43;;;2.10;;
12302;SDS011;6214;48.012;7.862;2023-04-03T12:59:25;15.60;;;2.08;;
12302;SDS011;6214;48.012;7.862;2023-04-03T13:01:53;15.70;;;1.70;;
12302;SDS011;6214;48.012;7.862;2023-04-03T13:04:20;16.85;;;2.10;;
12302;SDS011;6214;48.012;7.862;2023-04-03T13:06:48;15.90;;;1.98;;
12302;SDS011;6214;48.012;7.862;2023-04-03T13:09:18;15.80;;;2.00;;
12302;SDS011;6214;48.012;7.862;2023-04-03T13:11:49;15.60;;;1.92;;
12302;SDS011;6214;48.012;7.862;2023-04-03T13:14:21;15.65;;;1.85;;
12302;SDS011;6214;48.012;7.862;2023-04-03T13:16:58;15.77;;;2.03;;
12302;SDS011;6214;48.012;7.862;2023-04-03T13:19:42;16.40;;;2.10;;
12302;SDS011;6214;48.012;7.862;2023-04-03T13:24:50;15.60;;;2.20;;
12302;SDS011;6214;48.012;7.862;2023-04-03T13:27:18;15.50;;;1.90;;
12302;SDS011;6214;48.012;7.862;2023-04-03T13:29:50;15.90;;;2.00;;
12302;SDS011;6214;48.012;7.862;2023-04-03T13:32:20;15.60;;;1.80;;
12302;SDS011;6214;48.012;7.862;2023-04-03T13:34:50;15.70;;;2.10;;
12302;SDS011;6214;48.012;7.862;2023-04-03T13:37:31;15.50;;;1.90;;
12302;SDS011;6214;48.012;7.862;2023-04-03T13:40:17;16.60;;;2.20;;
12302;SDS011;6214;48.012;7.862;2023-04-03T13:42:44;15.50;;;2.10;;
12302;SDS011;6214;48.012;7.862;2023-04-03T13:45:23;15.57;;;2.00;;
12302;SDS011;6214;48.012;7.862;2023-04-03T13:51:03;15.70;;;2.00;;
12302;SDS011;6214;48.012;7.862;2023-04-03T13:53:33;17.17;;;1.80;;
12302;SDS011;6214;48.012;7.862;2023-04-03T13:56:08;16.17;;;2.10;;
12302;SDS011;6214;48.012;7.862;2023-04-03T13:59:44;15.70;;;2.10;;
12302;SDS011;6214;48.012;7.862;2023-04-03T14:01:51;15.80;;;2.00;;
12302;SDS011;6214;48.012;7.862;2023-04-03T14:06:51;16.00;;;2.15;;
12302;SDS011;6214;48.012;7.862;2023-04-03T14:09:19;15.63;;;1.88;;
12302;SDS011;6214;48.012;7.862;2023-04-03T14:11:48;15.90;;;2.20;;
12302;SDS011;6214;48.012;7.862;2023-04-03T14:14:22;16.48;;;2.15;;
12302;SDS011;6214;48.012;7.862;2023-04-03T14:16:56;16.70;;;2.20;;
12302;SDS011;6214;48.012;7.862;2023-04-03T14:19:27;15.77;;;2.00;;
12302;SDS011;6214;48.012;7.862;2023-04-03T14:21:56;15.95;;;2.00;;
12302;SDS011;6214;48.012;7.862;2023-04-03T14:24:24;16.48;;;2.25;;
12302;SDS011;6214;48.012;7.862;2023-04-03T14:26:52;15.50;;;1.63;;
12302;SDS011;6214;48.012;7.862;2023-04-03T14:29:21;16.02;;;1.90;;
12302;SDS011;6214;48.012;7.862;2023-04-03T14:31:49;16.33;;;2.30;;
12302;SDS011;6214;48.012;7.862;2023-04-03T14:34:29;15.52;;;2.00;;
12302;SDS011;6214;48.012;7.862;2023-04-03T14:36:56;15.88;;;1.90;;
12302;SDS011;6214;48.012;7.862;2023-04-03T14:39:23;15.65;;;1.70;;
12302;SDS011;6214;48.012;7.862;2023-04-03T14:41:50;16.38;;;1.98;;
12302;SDS011;6214;48.012;7.862;2023-04-03T14:44:17;16.40;;;2.13;;
12302;SDS011;6214;48.012;7.862;2023-04-03T14:46:44;16.52;;;2.10;;
12302;SDS011;6214;48.012;7.862;2023-04-03T14:49:26;15.88;;;2.10;;
12302;SDS011;6214;48.012;7.862;2023-04-03T14:51:56;15.60;;;2.00;;
12302;SDS011;6214;48.012;7.862;2023-04-03T14:54:24;15.50;;;2.00;;
12302;SDS011;6214;48.012;7.862;2023-04-03T14:56:55;16.08;;;2.10;;
12302;SDS011;6214;48.012;7.862;2023-04-03T14:59:23;16.10;;;2.00;;
12302;SDS011;6214;48.012;7.862;2023-04-03T15:01:50;16.60;;;2.60;;
12302;SDS011;6214;48.012;7.862;2023-04-03T15:04:18;15.60;;;2.00;;
12302;SDS011;6214;48.012;7.862;2023-04-03T15:06:47;16.00;;;2.00;;
12302;SDS011;6214;48.012;7.862;2023-04-03T15:09:19;15.40;;;1.85;;
12302;SDS011;6214;48.012;7.862;2023-04-03T15:11:49;16.30;;;2.30;;
12302;SDS011;6214;48.012;7.862;2023-04-03T15:14:17;16.13;;;2.00;;
12302;SDS011;6214;48.012;7.862;2023-04-03T15:17:01;15.55;;;1.83;;
12302;SDS011;6214;48.012;7.862;2023-04-03T15:19:31;15.80;;;2.10;;
12302;SDS011;6214;48.012;7.862;2023-04-03T15:22:03;15.38;;;1.90;;
12302;SDS011;6214;48.012;7.862;2023-04-03T15:24:30;16.20;;;2.28;;
12302;SDS011;6214;48.012;7.862;2023-04-03T15:26:57;15.95;;;2.20;;
12302;SDS011;6214;48.012;7.862;2023-04-03T15:29:26;17.30;;;2.10;;
12302;SDS011;6214;48.012;7.862;2023-04-03T15:31:53;16.08;;;2.08;;
12302;SDS011;6214;48.012;7.862;2023-04-03T15:34:21;16.55;;;2.10;;
12302;SDS011;6214;48.012;7.862;2023-04-03T15:36:49;16.50;;;2.00;;
12302;SDS011;6214;48.012;7.862;2023-04-03T15:39:19;16.10;;;2.20;;
12302;SDS011;6214;48.012;7.862;2023-04-03T15:41:46;16.75;;;2.50;;
12302;SDS011;6214;48.012;7.862;2023-04-03T15:44:13;15.93;;;2.20;;
12302;SDS011;6214;48.012;7.862;2023-04-03T17:02:47;16.67;;;2.30;;
12302;SDS011;6214;48.012;7.862;2023-04-03T17:05:14;15.68;;;2.10;;
12302;SDS011;6214;48.012;7.862;2023-04-03T17:07:41;16.75;;;2.00;;
12302;SDS011;6214;48.012;7.862;2023-04-03T17:10:08;15.93;;;2.20;;
12302;SDS011;6214;48.012;7.862;2023-04-03T17:12:35;15.90;;;2.03;;
12302;SDS011;6214;48.012;7.862;2023-04-03T17:15:02;15.93;;;1.90;;
12302;SDS011;6214;48.012;7.862;2023-04-03T17:17:29;15.90;;;1.88;;
12302;SDS011;6214;48.012;7.862;2023-04-03T17:19:57;16.00;;;2.08;;
12302;SDS011;6214;48.012;7.862;2023-04-03T17:22:24;15.70;;;1.80;;
12302;SDS011;6214;48.012;7.862;2023-04-03T17:24:52;15.90;;;2.10;;
12302;SDS011;6214;48.012;7.862;2023-04-03T17:27:19;16.00;;;1.90;;
12302;SDS011;6214;48.012;7.862;2023-04-03T17:29:46;15.65;;;2.00;;
12302;SDS011;6214;48.012;7.862;2023-04-03T17:32:13;16.98;;;1.92;;
12302;SDS011;6214;48.012;7.862;2023-04-03T17:34:39;16.20;;;1.90;;
12302;SDS011;6214;48.012;7.862;2023-04-03T17:37:06;16.00;;;2.10;;
12302;SDS011;6214;48.012;7.862;2023-04-03T17:39:33;16.77;;;2.50;;
12302;SDS011;6214;48.012;7.862;2023-04-03T17:42:00;16.10;;;2.20;;
12302;SDS011;6214;48.012;7.862;2023-04-03T17:44:27;16.60;;;2.10;;
12302;SDS011;6214;48.012;7.862;2023-04-03T17:46:54;15.90;;;1.90;;
12302;SDS011;6214;48.012;7.862;2023-04-03T17:49:21;16.60;;;2.30;;
12302;SDS011;6214;48.012;7.862;2023-04-03T17:51:48;16.33;;;1.90;;
12302;SDS011;6214;48.012;7.862;2023-04-03T17:54:15;17.07;;;2.10;;
12302;SDS011;6214;48.012;7.862;2023-04-03T17:56:42;16.50;;;2.10;;
12302;SDS011;6214;48.012;7.862;2023-04-03T17:59:14;16.40;;;2.17;;
12302;SDS011;6214;48.012;7.862;2023-04-03T18:01:43;15.80;;;1.90;;
12302;SDS011;6214;48.012;7.862;2023-04-03T18:04:12;17.30;;;2.50;;
12302;SDS011;6214;48.012;7.862;2023-04-03T18:06:40;16.80;;;2.33;;
12302;SDS011;6214;48.012;7.862;2023-04-03T18:09:14;16.20;;;2.22;;
12302;SDS011;6214;48.012;7.862;2023-04-03T18:11:45;17.00;;;2.50;;
12302;SDS011;6214;48.012;7.862;2023-04-03T18:14:14;16.40;;;2.40;;
12302;SDS011;6214;48.012;7.862;2023-04-03T18:16:43;15.73;;;2.30;;
12302;SDS011;6214;48.012;7.862;2023-04-03T18:19:09;15.85;;;2.20;;
12302;SDS011;6214;48.012;7.862;2023-04-03T18:21:48;17.70;;;2.30;;
12302;SDS011;6214;48.012;7.862;2023-04-03T18:24:20;16.80;;;2.40;;
12302;SDS011;6214;48.012;7.862;2023-04-03T18:26:49;16.40;;;2.20;;
12302;SDS011;6214;48.012;7.862;2023-04-03T18:29:21;16.00;;;2.30;;
12302;SDS011;6214;48.012;7.862;2023-04-03T18:31:49;17.65;;;2.50;;
12302;SDS011;6214;48.012;7.862;2023-04-03T18:34:19;17.00;;;2.40;;